sensor_id;sensor_type;location;lat;lon;timestamp;temperature;humidity
20862;DHT22;10591;52.532;13.348;2022-07-11T00:00:48;14.89;68.24
20862;DHT22;10591;52.532;13.348;2022-07-11T00:03:19;14.89;68.30
20862;DHT22;10591;52.532;13.348;2022-07-11T00:05:50;14.89;68.38
20862;DHT22;10591;52.532;13.348;2022-07-11T00:08:22;14.80;68.50
20862;DHT22;10591;52.532;13.348;2022-07-11T00:10:53;14.75;68.74
20862;DHT22;10591;52.532;13.348;2022-07-11T00:13:24;14.64;69.11
20862;DHT22;10591;52.532;13.348;2022-07-11T00:15:56;14.53;69.50
20862;DHT22;10591;52.532;13.348;2022-07-11T00:18:27;14.46;69.76
20862;DHT22;10591;52.532;13.348;2022-07-11T00:20:57;14.40;69.96
20862;DHT22;10591;52.532;13.348;2022-07-11T00:23:28;14.30;70.35
20862;DHT22;10591;52.532;13.348;2022-07-11T00:25:59;14.30;70.51
20862;DHT22;10591;52.532;13.348;2022-07-11T00:28:38;14.13;70.92
20862;DHT22;10591;52.532;13.348;2022-07-11T00:31:06;14.11;71.26
20862;DHT22;10591;52.532;13.348;2022-07-11T00:33:38;14.01;71.49
20862;DHT22;10591;52.532;13.348;2022-07-11T00:36:09;13.94;71.69
20862;DHT22;10591;52.532;13.348;2022-07-11T00:38:39;13.93;71.60
20862;DHT22;10591;52.532;13.348;2022-07-11T00:41:10;13.86;71.94
20862;DHT22;10591;52.532;13.348;2022-07-11T00:43:41;13.76;72.24
20862;DHT22;10591;52.532;13.348;2022-07-11T00:46:15;13.73;72.32
20862;DHT22;10591;52.532;13.348;2022-07-11T00:48:45;13.69;72.52
20862;DHT22;10591;52.532;13.348;2022-07-11T00:51:20;13.60;72.80
20862;DHT22;10591;52.532;13.348;2022-07-11T00:53:54;13.58;73.03
20862;DHT22;10591;52.532;13.348;2022-07-11T00:56:28;13.56;73.11
20862;DHT22;10591;52.532;13.348;2022-07-11T00:59:01;13.46;73.46
20862;DHT22;10591;52.532;13.348;2022-07-11T01:01:33;13.38;73.68
20862;DHT22;10591;52.532;13.348;2022-07-11T01:04:05;13.34;73.88
20862;DHT22;10591;52.532;13.348;2022-07-11T01:06:36;13.30;74.06
20862;DHT22;10591;52.532;13.348;2022-07-11T01:09:06;13.23;74.18
20862;DHT22;10591;52.532;13.348;2022-07-11T01:11:37;13.22;74.36
20862;DHT22;10591;52.532;13.348;2022-07-11T01:14:13;13.14;74.53
20862;DHT22;10591;52.532;13.348;2022-07-11T01:16:39;13.21;74.30
20862;DHT22;10591;52.532;13.348;2022-07-11T01:19:15;13.05;74.74
20862;DHT22;10591;52.532;13.348;2022-07-11T01:21:43;13.03;74.87
20862;DHT22;10591;52.532;13.348;2022-07-11T01:24:16;13.00;75.01
20862;DHT22;10591;52.532;13.348;2022-07-11T01:26:50;12.94;75.24
20862;DHT22;10591;52.532;13.348;2022-07-11T01:29:22;12.94;75.21
20862;DHT22;10591;52.532;13.348;2022-07-11T01:31:55;12.86;75.54
20862;DHT22;10591;52.532;13.348;2022-07-11T01:34:25;12.86;75.51
20862;DHT22;10591;52.532;13.348;2022-07-11T01:36:56;12.74;75.77
20862;DHT22;10591;52.532;13.348;2022-07-11T01:39:26;12.75;75.79
20862;DHT22;10591;52.532;13.348;2022-07-11T01:42:00;12.74;75.82
20862;DHT22;10591;52.532;13.348;2022-07-11T01:44:32;12.68;76.02
20862;DHT22;10591;52.532;13.348;2022-07-11T01:47:03;12.63;76.08
20862;DHT22;10591;52.532;13.348;2022-07-11T01:49:33;12.55;76.35
20862;DHT22;10591;52.532;13.348;2022-07-11T01:52:04;12.57;76.43
20862;DHT22;10591;52.532;13.348;2022-07-11T01:54:41;12.52;76.70
20862;DHT22;10591;52.532;13.348;2022-07-11T01:57:07;12.50;76.77
20862;DHT22;10591;52.532;13.348;2022-07-11T01:59:39;12.46;76.97
20862;DHT22;10591;52.532;13.348;2022-07-11T02:02:10;12.41;77.06
20862;DHT22;10591;52.532;13.348;2022-07-11T02:04:41;12.34;77.35
20862;DHT22;10591;52.532;13.348;2022-07-11T02:07:12;12.41;77.14
20862;DHT22;10591;52.532;13.348;2022-07-11T02:09:44;12.38;77.23
20862;DHT22;10591;52.532;13.348;2022-07-11T02:12:14;12.34;77.41
20862;DHT22;10591;52.532;13.348;2022-07-11T02:14:45;12.31;77.62
20862;DHT22;10591;52.532;13.348;2022-07-11T02:17:17;12.26;77.82
20862;DHT22;10591;52.532;13.348;2022-07-11T02:19:47;12.22;77.91
20862;DHT22;10591;52.532;13.348;2022-07-11T02:22:18;12.24;77.92
20862;DHT22;10591;52.532;13.348;2022-07-11T02:24:48;12.20;77.98
20862;DHT22;10591;52.532;13.348;2022-07-11T02:27:19;12.23;78.06
20862;DHT22;10591;52.532;13.348;2022-07-11T02:29:49;12.19;78.10
20862;DHT22;10591;52.532;13.348;2022-07-11T02:32:20;12.20;78.08
20862;DHT22;10591;52.532;13.348;2022-07-11T02:34:51;12.17;78.03
20862;DHT22;10591;52.532;13.348;2022-07-11T02:37:22;12.11;78.26
20862;DHT22;10591;52.532;13.348;2022-07-11T02:39:53;12.10;78.26
20862;DHT22;10591;52.532;13.348;2022-07-11T02:42:28;12.07;78.35
20862;DHT22;10591;52.532;13.348;2022-07-11T02:44:59;12.06;78.33
20862;DHT22;10591;52.532;13.348;2022-07-11T02:47:30;12.04;78.43
20862;DHT22;10591;52.532;13.348;2022-07-11T02:50:02;12.02;78.47
20862;DHT22;10591;52.532;13.348;2022-07-11T02:52:32;12.00;78.48
20862;DHT22;10591;52.532;13.348;2022-07-11T02:55:04;12.00;78.37
20862;DHT22;10591;52.532;13.348;2022-07-11T02:57:40;12.08;78.26
20862;DHT22;10591;52.532;13.348;2022-07-11T03:00:14;11.96;78.51
20862;DHT22;10591;52.532;13.348;2022-07-11T03:02:45;11.94;78.50
20862;DHT22;10591;52.532;13.348;2022-07-11T03:05:17;11.90;78.70
20862;DHT22;10591;52.532;13.348;2022-07-11T03:07:47;11.92;78.75
20862;DHT22;10591;52.532;13.348;2022-07-11T03:10:18;12.00;78.46
20862;DHT22;10591;52.532;13.348;2022-07-11T03:12:49;11.92;78.75
20862;DHT22;10591;52.532;13.348;2022-07-11T03:15:20;11.85;78.99
20862;DHT22;10591;52.532;13.348;2022-07-11T03:17:52;11.84;79.04
20862;DHT22;10591;52.532;13.348;2022-07-11T03:20:22;11.85;78.99
20862;DHT22;10591;52.532;13.348;2022-07-11T03:22:53;11.78;79.20
20862;DHT22;10591;52.532;13.348;2022-07-11T03:25:25;11.78;79.32
20862;DHT22;10591;52.532;13.348;2022-07-11T03:27:56;11.79;79.07
20862;DHT22;10591;52.532;13.348;2022-07-11T03:30:26;11.75;79.19
20862;DHT22;10591;52.532;13.348;2022-07-11T03:32:57;11.76;79.39
20862;DHT22;10591;52.532;13.348;2022-07-11T03:35:27;11.70;79.38
20862;DHT22;10591;52.532;13.348;2022-07-11T03:38:11;11.76;79.57
20862;DHT22;10591;52.532;13.348;2022-07-11T03:40:42;11.74;79.46
20862;DHT22;10591;52.532;13.348;2022-07-11T03:43:13;11.78;79.27
20862;DHT22;10591;52.532;13.348;2022-07-11T03:45:43;11.82;79.28
20862;DHT22;10591;52.532;13.348;2022-07-11T03:48:14;11.79;79.25
20862;DHT22;10591;52.532;13.348;2022-07-11T03:50:45;11.76;79.16
20862;DHT22;10591;52.532;13.348;2022-07-11T03:53:18;11.75;79.19
20862;DHT22;10591;52.532;13.348;2022-07-11T03:55:48;11.77;79.00
20862;DHT22;10591;52.532;13.348;2022-07-11T03:58:19;11.76;79.15
20862;DHT22;10591;52.532;13.348;2022-07-11T04:00:50;11.80;79.18
20862;DHT22;10591;52.532;13.348;2022-07-11T04:03:21;11.86;79.05
20862;DHT22;10591;52.532;13.348;2022-07-11T04:05:53;11.80;79.15
20862;DHT22;10591;52.532;13.348;2022-07-11T04:08:23;11.88;78.84
20862;DHT22;10591;52.532;13.348;2022-07-11T04:10:55;11.89;78.90
20862;DHT22;10591;52.532;13.348;2022-07-11T04:13:25;11.96;78.73
20862;DHT22;10591;52.532;13.348;2022-07-11T04:15:56;11.98;78.62
20862;DHT22;10591;52.532;13.348;2022-07-11T04:18:27;11.97;78.64
20862;DHT22;10591;52.532;13.348;2022-07-11T04:20:58;12.00;78.67
20862;DHT22;10591;52.532;13.348;2022-07-11T04:23:31;11.98;78.66
20862;DHT22;10591;52.532;13.348;2022-07-11T04:26:02;12.04;78.63
20862;DHT22;10591;52.532;13.348;2022-07-11T04:28:34;12.03;78.40
20862;DHT22;10591;52.532;13.348;2022-07-11T04:31:05;12.06;78.36
20862;DHT22;10591;52.532;13.348;2022-07-11T04:33:36;12.16;78.13
20862;DHT22;10591;52.532;13.348;2022-07-11T04:36:06;12.13;78.02
20862;DHT22;10591;52.532;13.348;2022-07-11T04:38:39;12.26;77.82
20862;DHT22;10591;52.532;13.348;2022-07-11T04:41:11;12.29;77.67
20862;DHT22;10591;52.532;13.348;2022-07-11T04:43:43;12.29;77.75
20862;DHT22;10591;52.532;13.348;2022-07-11T04:46:15;12.37;77.38
20862;DHT22;10591;52.532;13.348;2022-07-11T04:48:49;12.48;77.35
20862;DHT22;10591;52.532;13.348;2022-07-11T04:51:21;12.48;77.28
20862;DHT22;10591;52.532;13.348;2022-07-11T04:53:53;12.66;76.76
20862;DHT22;10591;52.532;13.348;2022-07-11T04:56:24;12.98;76.18
20862;DHT22;10591;52.532;13.348;2022-07-11T04:58:55;14.80;71.40
20862;DHT22;10591;52.532;13.348;2022-07-11T05:01:25;17.28;62.98
20862;DHT22;10591;52.532;13.348;2022-07-11T05:03:58;19.24;56.87
20862;DHT22;10591;52.532;13.348;2022-07-11T05:06:29;21.00;51.80
20862;DHT22;10591;52.532;13.348;2022-07-11T05:09:00;22.64;48.32
20862;DHT22;10591;52.532;13.348;2022-07-11T05:11:31;22.28;47.66
20862;DHT22;10591;52.532;13.348;2022-07-11T05:14:02;23.50;45.57
20862;DHT22;10591;52.532;13.348;2022-07-11T05:16:32;23.98;44.70
20862;DHT22;10591;52.532;13.348;2022-07-11T05:19:07;24.12;43.90
20862;DHT22;10591;52.532;13.348;2022-07-11T05:21:37;25.76;40.92
20862;DHT22;10591;52.532;13.348;2022-07-11T05:24:08;25.83;40.66
20862;DHT22;10591;52.532;13.348;2022-07-11T05:26:39;26.57;39.75
20862;DHT22;10591;52.532;13.348;2022-07-11T05:29:11;25.96;40.27
20862;DHT22;10591;52.532;13.348;2022-07-11T05:31:43;25.65;41.04
20862;DHT22;10591;52.532;13.348;2022-07-11T05:34:16;27.67;38.39
20862;DHT22;10591;52.532;13.348;2022-07-11T05:36:46;27.84;37.00
20862;DHT22;10591;52.532;13.348;2022-07-11T05:39:17;28.04;36.56
20862;DHT22;10591;52.532;13.348;2022-07-11T05:41:47;28.28;36.86
20862;DHT22;10591;52.532;13.348;2022-07-11T05:44:22;28.86;36.02
20862;DHT22;10591;52.532;13.348;2022-07-11T05:46:53;28.82;35.87
20862;DHT22;10591;52.532;13.348;2022-07-11T05:49:25;28.97;35.61
20862;DHT22;10591;52.532;13.348;2022-07-11T05:51:59;28.69;35.85
20862;DHT22;10591;52.532;13.348;2022-07-11T05:54:31;27.00;38.25
20862;DHT22;10591;52.532;13.348;2022-07-11T05:57:02;28.42;36.80
20862;DHT22;10591;52.532;13.348;2022-07-11T05:59:33;29.54;35.42
20862;DHT22;10591;52.532;13.348;2022-07-11T06:02:05;27.52;38.03
20862;DHT22;10591;52.532;13.348;2022-07-11T06:04:37;27.74;38.05
20862;DHT22;10591;52.532;13.348;2022-07-11T06:07:07;27.91;38.17
20862;DHT22;10591;52.532;13.348;2022-07-11T06:09:39;28.40;37.43
20862;DHT22;10591;52.532;13.348;2022-07-11T06:12:10;27.97;37.45
20862;DHT22;10591;52.532;13.348;2022-07-11T06:14:40;29.90;34.98
20862;DHT22;10591;52.532;13.348;2022-07-11T06:17:11;31.45;33.36
20862;DHT22;10591;52.532;13.348;2022-07-11T06:19:41;32.43;31.44
20862;DHT22;10591;52.532;13.348;2022-07-11T06:22:13;31.93;31.83
20862;DHT22;10591;52.532;13.348;2022-07-11T06:24:45;31.69;32.42
20862;DHT22;10591;52.532;13.348;2022-07-11T06:27:16;29.87;34.84
20862;DHT22;10591;52.532;13.348;2022-07-11T06:29:47;30.31;34.57
20862;DHT22;10591;52.532;13.348;2022-07-11T06:32:21;30.59;34.21
20862;DHT22;10591;52.532;13.348;2022-07-11T06:34:53;31.33;33.07
20862;DHT22;10591;52.532;13.348;2022-07-11T06:37:25;31.63;32.74
20862;DHT22;10591;52.532;13.348;2022-07-11T06:39:57;32.48;31.81
20862;DHT22;10591;52.532;13.348;2022-07-11T06:42:27;31.98;32.98
20862;DHT22;10591;52.532;13.348;2022-07-11T06:44:59;31.13;33.33
20862;DHT22;10591;52.532;13.348;2022-07-11T06:47:30;30.59;34.00
20862;DHT22;10591;52.532;13.348;2022-07-11T06:50:04;30.92;33.70
20862;DHT22;10591;52.532;13.348;2022-07-11T06:52:35;30.90;34.03
20862;DHT22;10591;52.532;13.348;2022-07-11T06:55:07;30.28;34.42
20862;DHT22;10591;52.532;13.348;2022-07-11T06:57:38;29.22;36.33
20862;DHT22;10591;52.532;13.348;2022-07-11T07:00:10;28.83;36.88
20862;DHT22;10591;52.532;13.348;2022-07-11T07:02:41;30.01;35.49
20862;DHT22;10591;52.532;13.348;2022-07-11T07:05:12;28.34;37.98
20862;DHT22;10591;52.532;13.348;2022-07-11T07:07:45;25.75;42.84
20862;DHT22;10591;52.532;13.348;2022-07-11T07:10:15;23.58;47.47
20862;DHT22;10591;52.532;13.348;2022-07-11T07:12:48;21.55;52.29
20862;DHT22;10591;52.532;13.348;2022-07-11T07:15:19;19.89;56.63
20862;DHT22;10591;52.532;13.348;2022-07-11T07:17:50;19.43;58.31
20862;DHT22;10591;52.532;13.348;2022-07-11T07:20:21;19.17;59.63
20862;DHT22;10591;52.532;13.348;2022-07-11T07:22:52;18.56;61.39
20862;DHT22;10591;52.532;13.348;2022-07-11T07:25:23;19.08;60.06
20862;DHT22;10591;52.532;13.348;2022-07-11T07:27:54;19.19;59.78
20862;DHT22;10591;52.532;13.348;2022-07-11T07:30:28;19.15;59.92
20862;DHT22;10591;52.532;13.348;2022-07-11T07:32:58;19.57;58.58
20862;DHT22;10591;52.532;13.348;2022-07-11T07:35:33;19.40;58.71
20862;DHT22;10591;52.532;13.348;2022-07-11T07:38:03;19.28;59.20
20862;DHT22;10591;52.532;13.348;2022-07-11T07:40:35;19.24;59.28
20862;DHT22;10591;52.532;13.348;2022-07-11T07:43:09;19.20;60.08
20862;DHT22;10591;52.532;13.348;2022-07-11T07:45:39;19.24;59.72
20862;DHT22;10591;52.532;13.348;2022-07-11T07:48:12;19.38;59.66
20862;DHT22;10591;52.532;13.348;2022-07-11T07:50:43;19.08;60.38
20862;DHT22;10591;52.532;13.348;2022-07-11T07:53:14;18.92;61.30
20862;DHT22;10591;52.532;13.348;2022-07-11T07:55:45;18.98;61.61
20862;DHT22;10591;52.532;13.348;2022-07-11T07:58:17;18.78;61.08
20862;DHT22;10591;52.532;13.348;2022-07-11T08:00:47;18.67;61.97
20862;DHT22;10591;52.532;13.348;2022-07-11T08:03:36;18.08;63.07
20862;DHT22;10591;52.532;13.348;2022-07-11T08:06:07;18.43;62.95
20862;DHT22;10591;52.532;13.348;2022-07-11T08:08:39;18.31;63.28
20862;DHT22;10591;52.532;13.348;2022-07-11T08:11:10;18.42;63.33
20862;DHT22;10591;52.532;13.348;2022-07-11T08:13:42;18.58;62.60
20862;DHT22;10591;52.532;13.348;2022-07-11T08:16:13;18.44;62.73
20862;DHT22;10591;52.532;13.348;2022-07-11T08:18:46;18.54;62.89
20862;DHT22;10591;52.532;13.348;2022-07-11T08:21:17;18.42;62.75
20862;DHT22;10591;52.532;13.348;2022-07-11T08:23:47;18.28;63.01
20862;DHT22;10591;52.532;13.348;2022-07-11T08:26:18;18.28;63.53
20862;DHT22;10591;52.532;13.348;2022-07-11T08:28:49;18.26;63.25
20862;DHT22;10591;52.532;13.348;2022-07-11T08:31:21;18.36;63.55
20862;DHT22;10591;52.532;13.348;2022-07-11T08:33:52;18.36;63.61
20862;DHT22;10591;52.532;13.348;2022-07-11T08:36:24;18.29;63.13
20862;DHT22;10591;52.532;13.348;2022-07-11T08:38:58;18.40;62.92
20862;DHT22;10591;52.532;13.348;2022-07-11T08:41:31;18.41;62.77
20862;DHT22;10591;52.532;13.348;2022-07-11T08:44:02;18.38;62.24
20862;DHT22;10591;52.532;13.348;2022-07-11T08:46:32;18.34;62.71
20862;DHT22;10591;52.532;13.348;2022-07-11T08:49:05;18.74;61.92
20862;DHT22;10591;52.532;13.348;2022-07-11T08:51:38;18.91;60.92
20862;DHT22;10591;52.532;13.348;2022-07-11T08:54:12;18.84;61.06
20862;DHT22;10591;52.532;13.348;2022-07-11T08:56:44;18.84;60.05
20862;DHT22;10591;52.532;13.348;2022-07-11T08:59:25;18.86;60.88
20862;DHT22;10591;52.532;13.348;2022-07-11T09:02:01;18.93;60.92
20862;DHT22;10591;52.532;13.348;2022-07-11T09:04:34;19.12;60.27
20862;DHT22;10591;52.532;13.348;2022-07-11T09:07:05;19.38;59.54
20862;DHT22;10591;52.532;13.348;2022-07-11T09:09:38;19.38;59.39
20862;DHT22;10591;52.532;13.348;2022-07-11T09:12:12;19.29;59.49
20862;DHT22;10591;52.532;13.348;2022-07-11T09:14:48;19.30;59.08
20862;DHT22;10591;52.532;13.348;2022-07-11T09:17:26;19.25;58.59
20862;DHT22;10591;52.532;13.348;2022-07-11T09:19:57;19.23;57.44
20862;DHT22;10591;52.532;13.348;2022-07-11T09:22:28;19.16;58.75
20862;DHT22;10591;52.532;13.348;2022-07-11T09:25:17;19.13;58.66
20862;DHT22;10591;52.532;13.348;2022-07-11T09:28:04;19.58;58.43
20862;DHT22;10591;52.532;13.348;2022-07-11T09:30:39;19.80;57.16
20862;DHT22;10591;52.532;13.348;2022-07-11T09:33:17;19.76;56.76
20862;DHT22;10591;52.532;13.348;2022-07-11T09:35:55;19.80;56.52
20862;DHT22;10591;52.532;13.348;2022-07-11T09:38:55;20.15;56.24
20862;DHT22;10591;52.532;13.348;2022-07-11T09:41:15;20.08;56.63
20862;DHT22;10591;52.532;13.348;2022-07-11T09:43:50;19.87;57.41
20862;DHT22;10591;52.532;13.348;2022-07-11T09:46:27;19.92;57.06
20862;DHT22;10591;52.532;13.348;2022-07-11T09:49:03;20.27;55.77
20862;DHT22;10591;52.532;13.348;2022-07-11T09:51:36;19.92;56.14
20862;DHT22;10591;52.532;13.348;2022-07-11T09:54:09;20.10;56.36
20862;DHT22;10591;52.532;13.348;2022-07-11T09:56:43;20.28;55.95
20862;DHT22;10591;52.532;13.348;2022-07-11T09:59:18;20.94;55.06
20862;DHT22;10591;52.532;13.348;2022-07-11T10:01:54;20.70;54.13
20862;DHT22;10591;52.532;13.348;2022-07-11T10:04:46;20.87;54.16
20862;DHT22;10591;52.532;13.348;2022-07-11T10:07:20;20.63;53.72
20862;DHT22;10591;52.532;13.348;2022-07-11T10:09:54;20.82;52.53
20862;DHT22;10591;52.532;13.348;2022-07-11T10:12:26;20.71;54.23
20862;DHT22;10591;52.532;13.348;2022-07-11T10:15:07;20.94;53.85
20862;DHT22;10591;52.532;13.348;2022-07-11T10:18:05;21.08;52.66
20862;DHT22;10591;52.532;13.348;2022-07-11T10:20:51;21.54;51.21
20862;DHT22;10591;52.532;13.348;2022-07-11T10:23:32;21.36;50.36
20862;DHT22;10591;52.532;13.348;2022-07-11T10:29:05;20.81;50.73
20862;DHT22;10591;52.532;13.348;2022-07-11T10:31:39;20.63;51.24
20862;DHT22;10591;52.532;13.348;2022-07-11T10:34:15;20.47;52.39
20862;DHT22;10591;52.532;13.348;2022-07-11T10:37:02;20.02;52.64
20862;DHT22;10591;52.532;13.348;2022-07-11T10:39:38;19.86;52.68
20862;DHT22;10591;52.532;13.348;2022-07-11T10:42:18;20.00;52.01
20862;DHT22;10591;52.532;13.348;2022-07-11T10:44:53;20.32;52.18
20862;DHT22;10591;52.532;13.348;2022-07-11T10:47:41;20.62;51.75
20862;DHT22;10591;52.532;13.348;2022-07-11T10:52:56;20.84;50.93
20862;DHT22;10591;52.532;13.348;2022-07-11T10:55:47;20.79;50.35
20862;DHT22;10591;52.532;13.348;2022-07-11T10:58:31;21.10;50.27
20862;DHT22;10591;52.532;13.348;2022-07-11T11:03:42;21.24;49.77
20862;DHT22;10591;52.532;13.348;2022-07-11T11:06:13;21.00;48.08
20862;DHT22;10591;52.532;13.348;2022-07-11T11:08:46;20.86;48.71
20862;DHT22;10591;52.532;13.348;2022-07-11T11:14:17;21.13;48.48
20862;DHT22;10591;52.532;13.348;2022-07-11T11:16:50;21.25;48.44
20862;DHT22;10591;52.532;13.348;2022-07-11T11:19:49;21.38;48.80
20862;DHT22;10591;52.532;13.348;2022-07-11T11:22:23;21.54;46.15
20862;DHT22;10591;52.532;13.348;2022-07-11T11:24:59;21.45;47.33
20862;DHT22;10591;52.532;13.348;2022-07-11T11:27:31;21.43;46.94
20862;DHT22;10591;52.532;13.348;2022-07-11T11:30:05;21.67;46.81
20862;DHT22;10591;52.532;13.348;2022-07-11T11:32:36;22.07;46.47
20862;DHT22;10591;52.532;13.348;2022-07-11T11:35:07;22.32;45.98
20862;DHT22;10591;52.532;13.348;2022-07-11T11:37:38;22.11;46.67
20862;DHT22;10591;52.532;13.348;2022-07-11T11:40:13;21.85;46.08
20862;DHT22;10591;52.532;13.348;2022-07-11T11:42:46;21.86;46.35
20862;DHT22;10591;52.532;13.348;2022-07-11T11:45:18;22.24;45.74
20862;DHT22;10591;52.532;13.348;2022-07-11T11:47:50;22.24;45.84
20862;DHT22;10591;52.532;13.348;2022-07-11T11:50:21;22.36;45.46
20862;DHT22;10591;52.532;13.348;2022-07-11T11:52:53;22.16;45.50
20862;DHT22;10591;52.532;13.348;2022-07-11T11:55:26;22.12;46.31
20862;DHT22;10591;52.532;13.348;2022-07-11T11:58:00;22.50;45.28
20862;DHT22;10591;52.532;13.348;2022-07-11T12:00:32;22.54;45.45
20862;DHT22;10591;52.532;13.348;2022-07-11T12:03:04;22.35;45.59
20862;DHT22;10591;52.532;13.348;2022-07-11T12:05:35;22.37;45.92
20862;DHT22;10591;52.532;13.348;2022-07-11T12:08:06;22.01;45.49
20862;DHT22;10591;52.532;13.348;2022-07-11T12:10:38;21.76;45.42
20862;DHT22;10591;52.532;13.348;2022-07-11T12:13:11;22.11;45.17
20862;DHT22;10591;52.532;13.348;2022-07-11T12:15:43;22.24;44.59
20862;DHT22;10591;52.532;13.348;2022-07-11T12:18:37;22.91;43.88
20862;DHT22;10591;52.532;13.348;2022-07-11T12:21:15;22.48;45.15
20862;DHT22;10591;52.532;13.348;2022-07-11T12:23:45;22.45;45.76
20862;DHT22;10591;52.532;13.348;2022-07-11T12:26:15;21.96;44.69
20862;DHT22;10591;52.532;13.348;2022-07-11T12:29:09;21.96;44.82
20862;DHT22;10591;52.532;13.348;2022-07-11T12:31:53;22.16;45.27
20862;DHT22;10591;52.532;13.348;2022-07-11T12:34:26;22.36;45.85
20862;DHT22;10591;52.532;13.348;2022-07-11T12:37:08;22.44;45.14
20862;DHT22;10591;52.532;13.348;2022-07-11T12:39:46;22.41;45.40
20862;DHT22;10591;52.532;13.348;2022-07-11T12:47:36;22.09;45.23
20862;DHT22;10591;52.532;13.348;2022-07-11T12:50:16;22.73;45.44
20862;DHT22;10591;52.532;13.348;2022-07-11T12:52:52;23.28;42.93
20862;DHT22;10591;52.532;13.348;2022-07-11T12:55:29;22.80;43.83
20862;DHT22;10591;52.532;13.348;2022-07-11T12:58:07;22.82;45.06
20862;DHT22;10591;52.532;13.348;2022-07-11T13:01:01;22.70;43.26
20862;DHT22;10591;52.532;13.348;2022-07-11T13:03:38;22.60;43.91
20862;DHT22;10591;52.532;13.348;2022-07-11T13:06:06;22.88;42.42
20862;DHT22;10591;52.532;13.348;2022-07-11T13:08:38;23.24;42.53
20862;DHT22;10591;52.532;13.348;2022-07-11T13:11:21;22.44;45.27
20862;DHT22;10591;52.532;13.348;2022-07-11T13:13:55;21.92;46.26
20862;DHT22;10591;52.532;13.348;2022-07-11T13:16:25;21.95;46.78
20862;DHT22;10591;52.532;13.348;2022-07-11T13:18:56;22.04;44.96
20862;DHT22;10591;52.532;13.348;2022-07-11T13:21:29;22.33;44.77
20862;DHT22;10591;52.532;13.348;2022-07-11T13:23:59;22.64;44.77
20862;DHT22;10591;52.532;13.348;2022-07-11T13:26:31;22.66;44.52
20862;DHT22;10591;52.532;13.348;2022-07-11T13:29:02;22.75;44.42
20862;DHT22;10591;52.532;13.348;2022-07-11T13:31:32;22.52;44.20
20862;DHT22;10591;52.532;13.348;2022-07-11T13:34:04;22.66;44.64
20862;DHT22;10591;52.532;13.348;2022-07-11T13:36:35;22.80;44.93
20862;DHT22;10591;52.532;13.348;2022-07-11T13:39:07;22.89;45.29
20862;DHT22;10591;52.532;13.348;2022-07-11T13:41:40;22.64;44.28
20862;DHT22;10591;52.532;13.348;2022-07-11T13:44:11;22.44;44.15
20862;DHT22;10591;52.532;13.348;2022-07-11T13:46:41;22.57;45.03
20862;DHT22;10591;52.532;13.348;2022-07-11T13:49:12;22.58;43.78
20862;DHT22;10591;52.532;13.348;2022-07-11T13:51:43;23.12;42.98
20862;DHT22;10591;52.532;13.348;2022-07-11T13:54:17;23.70;42.41
20862;DHT22;10591;52.532;13.348;2022-07-11T13:56:47;24.01;41.54
20862;DHT22;10591;52.532;13.348;2022-07-11T13:59:18;24.12;41.02
20862;DHT22;10591;52.532;13.348;2022-07-11T14:01:49;23.83;41.99
20862;DHT22;10591;52.532;13.348;2022-07-11T14:04:20;23.18;41.69
20862;DHT22;10591;52.532;13.348;2022-07-11T14:06:52;23.23;42.66
20862;DHT22;10591;52.532;13.348;2022-07-11T14:09:25;23.02;42.47
20862;DHT22;10591;52.532;13.348;2022-07-11T14:11:59;23.05;42.60
20862;DHT22;10591;52.532;13.348;2022-07-11T14:14:30;23.08;43.04
20862;DHT22;10591;52.532;13.348;2022-07-11T14:17:02;23.04;42.04
20862;DHT22;10591;52.532;13.348;2022-07-11T14:19:34;23.02;42.77
20862;DHT22;10591;52.532;13.348;2022-07-11T14:22:07;23.16;41.12
20862;DHT22;10591;52.532;13.348;2022-07-11T14:24:38;23.30;42.86
20862;DHT22;10591;52.532;13.348;2022-07-11T14:27:09;23.54;40.55
20862;DHT22;10591;52.532;13.348;2022-07-11T14:29:42;23.14;41.89
20862;DHT22;10591;52.532;13.348;2022-07-11T14:32:13;22.89;42.16
20862;DHT22;10591;52.532;13.348;2022-07-11T14:34:44;22.71;42.60
20862;DHT22;10591;52.532;13.348;2022-07-11T14:37:15;22.64;44.41
20862;DHT22;10591;52.532;13.348;2022-07-11T14:39:46;22.55;43.31
20862;DHT22;10591;52.532;13.348;2022-07-11T14:42:17;22.86;42.92
20862;DHT22;10591;52.532;13.348;2022-07-11T14:44:49;22.56;42.45
20862;DHT22;10591;52.532;13.348;2022-07-11T14:47:22;22.78;42.28
20862;DHT22;10591;52.532;13.348;2022-07-11T14:49:52;22.72;42.40
20862;DHT22;10591;52.532;13.348;2022-07-11T14:52:24;22.46;42.47
20862;DHT22;10591;52.532;13.348;2022-07-11T14:54:55;22.66;42.66
20862;DHT22;10591;52.532;13.348;2022-07-11T14:57:25;22.82;42.64
20862;DHT22;10591;52.532;13.348;2022-07-11T14:59:57;22.94;42.53
20862;DHT22;10591;52.532;13.348;2022-07-11T15:02:27;23.17;42.45
20862;DHT22;10591;52.532;13.348;2022-07-11T15:05:16;23.32;43.66
20862;DHT22;10591;52.532;13.348;2022-07-11T15:07:47;23.24;42.72
20862;DHT22;10591;52.532;13.348;2022-07-11T15:10:39;23.24;42.62
20862;DHT22;10591;52.532;13.348;2022-07-11T15:13:29;23.30;42.40
20862;DHT22;10591;52.532;13.348;2022-07-11T15:16:00;23.20;42.72
20862;DHT22;10591;52.532;13.348;2022-07-11T15:18:30;23.13;42.58
20862;DHT22;10591;52.532;13.348;2022-07-11T15:21:01;22.93;42.46
20862;DHT22;10591;52.532;13.348;2022-07-11T15:23:35;22.78;42.81
20862;DHT22;10591;52.532;13.348;2022-07-11T15:26:06;22.85;42.39
20862;DHT22;10591;52.532;13.348;2022-07-11T15:28:38;22.91;42.62
20862;DHT22;10591;52.532;13.348;2022-07-11T15:31:09;23.09;41.24
20862;DHT22;10591;52.532;13.348;2022-07-11T15:33:42;22.91;42.62
20862;DHT22;10591;52.532;13.348;2022-07-11T15:36:18;22.84;42.42
20862;DHT22;10591;52.532;13.348;2022-07-11T15:38:50;22.80;42.34
20862;DHT22;10591;52.532;13.348;2022-07-11T15:41:21;22.72;42.27
20862;DHT22;10591;52.532;13.348;2022-07-11T15:43:54;22.92;42.59
20862;DHT22;10591;52.532;13.348;2022-07-11T15:46:25;22.84;43.61
20862;DHT22;10591;52.532;13.348;2022-07-11T15:48:59;22.70;43.63
20862;DHT22;10591;52.532;13.348;2022-07-11T15:51:30;22.78;44.79
20862;DHT22;10591;52.532;13.348;2022-07-11T15:54:04;22.54;44.23
20862;DHT22;10591;52.532;13.348;2022-07-11T15:56:36;22.52;44.36
20862;DHT22;10591;52.532;13.348;2022-07-11T15:59:08;22.45;44.49
20862;DHT22;10591;52.532;13.348;2022-07-11T16:01:38;22.29;44.60
20862;DHT22;10591;52.532;13.348;2022-07-11T16:04:11;22.28;44.86
20862;DHT22;10591;52.532;13.348;2022-07-11T16:06:42;22.09;44.58